This is the latest recevied weather packets stored in our database for station/object WD4IXD-WX. If no packets are shown the sender has not sent any weather packets the latest 10 day(s).
| Time | Temp. | Humidity | Pressure | Rain* | Wind** | Luminosity | Snow |
|---|---|---|---|---|---|---|---|
| 1777948504 | 1.67° C | 87% | 1015.2 hPa | 0.76 mm | - | 0 W/m² | - |
| 1777948204 | 1.67° C | 87% | 1015.3 hPa | 1.02 mm | - | 0 W/m² | - |
| 1777947903 | 2.22° C | 87% | 1015.3 hPa | 1.27 mm | - | 0 W/m² | - |
| 1777947604 | 2.22° C | 86% | 1015.1 hPa | 1.52 mm | - | 0 W/m² | - |
| 1777947303 | 2.22° C | 86% | 1015.1 hPa | 1.52 mm | - | 0 W/m² | - |
| 1777947004 | 2.22° C | 86% | 1015.2 hPa | 1.78 mm | - | 0 W/m² | - |
| 1777946704 | 2.22° C | 86% | 1015.1 hPa | 1.52 mm | - | 0 W/m² | - |
| 1777946404 | 2.78° C | 86% | 1015 hPa | 1.78 mm | - | 0 W/m² | - |
| 1777946104 | 2.78° C | 86% | 1015 hPa | 1.78 mm | - | 5 W/m² | - |
| 1777945804 | 2.78° C | 85% | 1015.1 hPa | 2.29 mm | - | 5 W/m² | - |
| 1777945504 | 2.78° C | 85% | 1015.3 hPa | 2.54 mm | - | 5 W/m² | - |
| 1777945204 | 2.78° C | 84% | 1015.5 hPa | 2.29 mm | - | 7 W/m² | - |
| 1777944904 | 2.78° C | 84% | 1015.5 hPa | 2.03 mm | - | 5 W/m² | - |
| 1777944604 | 2.78° C | 84% | 1015.5 hPa | 1.78 mm | - | 5 W/m² | - |
| 1777944303 | 2.78° C | 84% | 1015.4 hPa | 1.52 mm | - | 0 W/m² | - |
| 1777944004 | 2.78° C | 85% | 1015.4 hPa | 1.27 mm | - | 0 W/m² | - |
| 1777943704 | 2.78° C | 84% | 1015.4 hPa | 1.27 mm | - | 0 W/m² | - |
| 1777943404 | 2.78° C | 83% | 1015.5 hPa | 1.02 mm | - | 0 W/m² | - |
| 1777943104 | 3.33° C | 81% | 1015.5 hPa | 1.02 mm | - | 0 W/m² | - |
| 1777942804 | 3.33° C | 80% | 1015.4 hPa | 0.76 mm | - | 5 W/m² | - |
| 1777942504 | 3.89° C | 76% | 1015.4 hPa | 0.76 mm | - | 5 W/m² | - |
| 1777942204 | 4.44° C | 71% | 1015.2 hPa | 0.25 mm | - | 7 W/m² | - |
| 1777941904 | 5.56° C | 68% | 1015.2 hPa | 0 mm | - | 9 W/m² | - |
| 1777941604 | 6.11° C | 64% | 1015.1 hPa | 0 mm | - | 12 W/m² | - |
| 1777941304 | 6.67° C | 61% | 1015.1 hPa | 0 mm | - | 14 W/m² | - |
* Rain latest hour (hover to see other rain measurements)
** Current wind speed in m/s (hover to see current wind gust speed)